createdAt,value
2022-09-02T00:00:09.960Z,1.40
2022-09-02T00:02:59.783Z,1.52
2022-09-02T00:05:28.530Z,1.60
2022-09-02T00:07:56.845Z,1.02
2022-09-02T00:10:25.155Z,1.00
2022-09-02T00:12:53.868Z,1.10
2022-09-02T00:15:22.173Z,1.33
2022-09-02T00:17:50.625Z,0.90
2022-09-02T00:20:21.717Z,1.35
2022-09-02T00:22:50.278Z,1.20
2022-09-02T00:25:18.541Z,1.80
2022-09-02T00:27:47.397Z,4.45
2022-09-02T00:30:15.831Z,6.05
2022-09-02T00:32:44.483Z,5.68
2022-09-02T00:35:13.088Z,3.67
2022-09-02T00:37:42.827Z,2.35
2022-09-02T00:40:12.893Z,1.38
2022-09-02T00:42:42.462Z,1.20
2022-09-02T00:45:12.730Z,1.00
2022-09-02T00:47:41.107Z,1.10
2022-09-02T00:50:13.114Z,1.00
2022-09-02T00:52:46.929Z,1.10
2022-09-02T00:55:18.950Z,0.90
2022-09-02T00:57:50.217Z,0.93
2022-09-02T01:00:22.461Z,1.13
2022-09-02T01:02:54.078Z,1.00
2022-09-02T01:05:25.471Z,0.93
2022-09-02T01:07:56.141Z,0.85
2022-09-02T01:10:29.128Z,1.25
2022-09-02T01:12:58.483Z,1.42
2022-09-02T01:15:28.126Z,1.77
2022-09-02T01:20:27.279Z,1.45
2022-09-02T01:22:58.561Z,1.48
2022-09-02T01:25:29.630Z,1.63
2022-09-02T01:28:01.348Z,1.30
2022-09-02T01:30:30.913Z,1.30
2022-09-02T01:32:59.327Z,1.10
2022-09-02T01:35:27.797Z,1.40
2022-09-02T01:37:59.117Z,1.03
2022-09-02T01:40:29.798Z,1.33
2022-09-02T01:43:00.705Z,1.50
2022-09-02T01:45:29.501Z,2.08
2022-09-02T01:47:57.966Z,1.48
2022-09-02T01:50:26.566Z,1.13
2022-09-02T01:52:55.243Z,1.67
2022-09-02T01:55:25.245Z,1.75
2022-09-02T01:57:53.723Z,1.58
2022-09-02T02:00:23.209Z,1.70
2022-09-02T02:02:51.885Z,1.40
2022-09-02T02:05:20.747Z,1.47
2022-09-02T02:07:49.508Z,1.52
2022-09-02T02:10:20.415Z,1.47
2022-09-02T02:12:50.346Z,1.45
2022-09-02T02:15:21.051Z,1.63
2022-09-02T02:17:49.430Z,1.38
2022-09-02T02:20:20.406Z,1.33
2022-09-02T02:22:49.999Z,1.50
2022-09-02T02:25:19.351Z,1.38
2022-09-02T02:27:49.384Z,1.33
2022-09-02T02:30:19.959Z,1.50
2022-09-02T02:32:48.755Z,1.70
2022-09-02T02:35:18.610Z,1.60
2022-09-02T02:37:49.366Z,1.40
2022-09-02T02:40:20.514Z,1.52
2022-09-02T02:42:50.193Z,1.88
2022-09-02T02:50:18.694Z,1.85
2022-09-02T02:52:49.007Z,1.33
2022-09-02T02:55:18.192Z,1.60
2022-09-02T02:57:46.999Z,1.23
2022-09-02T03:00:19.041Z,1.08
2022-09-02T03:02:50.128Z,1.55
2022-09-02T03:05:19.217Z,1.27
2022-09-02T03:07:47.499Z,1.52
2022-09-02T03:13:57.863Z,1.25
2022-09-02T03:16:26.430Z,0.93
2022-09-02T03:18:56.396Z,1.23
2022-09-02T03:21:24.875Z,1.00
2022-09-02T03:23:53.532Z,0.95
2022-09-02T03:26:25.910Z,0.95
2022-09-02T03:28:56.015Z,0.80
2022-09-02T03:31:26.247Z,0.98
2022-09-02T03:33:56.356Z,0.60
2022-09-02T03:36:26.986Z,0.50
2022-09-02T03:38:55.734Z,0.65
2022-09-02T03:41:24.161Z,0.70
2022-09-02T03:43:52.690Z,0.82
2022-09-02T03:46:21.485Z,0.73
2022-09-02T03:48:52.040Z,0.63
2022-09-02T03:51:23.494Z,0.70
2022-09-02T03:53:52.125Z,0.57
2022-09-02T03:56:20.966Z,0.70
2022-09-02T03:58:52.103Z,0.70
2022-09-02T04:01:23.885Z,0.50
2022-09-02T04:03:53.411Z,0.70
2022-09-02T04:06:24.911Z,0.73
2022-09-02T04:08:55.004Z,0.70
2022-09-02T04:11:25.137Z,0.55
2022-09-02T04:13:54.716Z,0.60
2022-09-02T04:16:29.009Z,0.50
2022-09-02T04:18:59.778Z,0.93
2022-09-02T04:21:31.118Z,1.13
2022-09-02T04:23:59.441Z,1.02
2022-09-02T04:26:29.061Z,1.05
2022-09-02T04:28:57.623Z,1.15
2022-09-02T04:31:28.892Z,1.08
2022-09-02T04:33:57.934Z,1.10
2022-09-02T04:36:29.059Z,1.58
2022-09-02T04:39:01.215Z,1.50
2022-09-02T04:41:31.468Z,1.05
2022-09-02T04:44:01.296Z,0.75
2022-09-02T04:46:35.015Z,0.80
2022-09-02T04:49:03.781Z,0.60
2022-09-02T04:51:33.067Z,0.70
2022-09-02T04:54:03.226Z,0.68
2022-09-02T04:56:32.920Z,0.50
2022-09-02T04:59:02.103Z,0.63
2022-09-02T05:01:33.734Z,0.60
2022-09-02T05:04:03.022Z,0.70
2022-09-02T05:09:00.653Z,0.60
2022-09-02T05:11:32.026Z,0.50
2022-09-02T05:14:04.463Z,0.60
2022-09-02T05:16:36.860Z,0.60
2022-09-02T05:19:06.590Z,0.75
2022-09-02T05:24:02.935Z,0.80
2022-09-02T05:26:36.190Z,0.50
2022-09-02T05:29:07.064Z,0.70
2022-09-02T05:31:36.241Z,0.65
2022-09-02T05:34:05.284Z,0.70
2022-09-02T05:36:33.628Z,0.80
2022-09-02T05:39:02.410Z,0.50
2022-09-02T05:41:32.763Z,0.77
2022-09-02T05:44:03.885Z,0.75
2022-09-02T05:46:32.890Z,0.65
2022-09-02T05:49:12.506Z,0.70
2022-09-02T05:51:44.472Z,0.82
2022-09-02T05:54:14.949Z,0.77
2022-09-02T05:56:46.549Z,0.95
2022-09-02T05:59:15.622Z,0.57
2022-09-02T06:01:44.455Z,0.70
2022-09-02T06:04:12.896Z,0.90
2022-09-02T06:06:42.335Z,1.02
2022-09-02T06:09:16.399Z,0.80
2022-09-02T06:11:49.519Z,0.50
2022-09-02T06:14:23.260Z,0.55
2022-09-02T06:16:53.832Z,0.63
2022-09-02T06:19:22.649Z,0.50
2022-09-02T06:21:51.087Z,0.85
2022-09-02T06:24:22.591Z,0.65
2022-09-02T06:26:59.560Z,0.50
2022-09-02T06:29:34.119Z,0.70
2022-09-02T06:32:02.901Z,0.63
2022-09-02T06:34:31.695Z,0.90
2022-09-02T06:37:00.107Z,0.70
2022-09-02T06:39:29.005Z,0.60
2022-09-02T06:41:59.195Z,0.63
2022-09-02T06:44:27.485Z,0.95
2022-09-02T06:46:57.641Z,0.60
2022-09-02T06:49:29.067Z,0.70
2022-09-02T06:51:57.917Z,0.55
2022-09-02T06:54:26.826Z,0.55
2022-09-02T06:56:55.755Z,0.45
2022-09-02T06:59:25.780Z,0.75
2022-09-02T07:01:54.637Z,0.70
2022-09-02T07:04:40.400Z,1.05
2022-09-02T07:07:12.134Z,0.60
2022-09-02T07:09:40.609Z,0.30
2022-09-02T07:12:09.525Z,0.40
2022-09-02T07:14:41.227Z,0.50
2022-09-02T07:17:10.415Z,0.45
2022-09-02T07:19:39.662Z,0.20
2022-09-02T07:22:08.863Z,0.30
2022-09-02T07:24:38.320Z,0.47
2022-09-02T07:27:07.310Z,0.47
2022-09-02T07:29:36.479Z,0.50
2022-09-02T07:32:06.891Z,0.50
2022-09-02T07:34:35.401Z,0.50
2022-09-02T07:37:07.406Z,0.60
2022-09-02T07:39:38.473Z,0.57
2022-09-02T07:42:07.640Z,0.27
2022-09-02T07:44:36.918Z,0.25
2022-09-02T07:47:07.816Z,0.17
2022-09-02T07:52:25.222Z,0.30
2022-09-02T07:54:53.853Z,0.20
2022-09-02T07:57:22.245Z,0.65
2022-09-02T07:59:50.844Z,0.50
2022-09-02T08:02:20.920Z,0.30
2022-09-02T08:04:49.357Z,0.20
2022-09-02T08:07:24.208Z,0.40
2022-09-02T08:09:52.840Z,0.50
2022-09-02T08:12:22.442Z,0.45
2022-09-02T08:14:51.469Z,0.30
2022-09-02T08:17:21.502Z,0.40
2022-09-02T08:19:50.212Z,0.40
2022-09-02T08:22:18.616Z,0.50
2022-09-02T08:24:47.271Z,0.65
2022-09-02T08:27:15.782Z,0.30
2022-09-02T08:29:44.009Z,0.30
2022-09-02T08:32:12.295Z,0.55
2022-09-02T08:34:42.442Z,0.45
2022-09-02T08:37:10.708Z,0.50
2022-09-02T08:39:39.167Z,0.30
2022-09-02T08:42:16.628Z,0.30
2022-09-02T08:44:44.965Z,0.30
2022-09-02T08:47:17.429Z,0.40
2022-09-02T08:49:50.709Z,0.10
2022-09-02T08:52:26.108Z,0.28
2022-09-02T08:54:56.483Z,0.20
2022-09-02T08:57:27.218Z,0.20
2022-09-02T08:59:58.518Z,0.40
2022-09-02T09:02:35.746Z,0.28
2022-09-02T09:05:17.732Z,0.20
2022-09-02T09:08:03.128Z,0.30
2022-09-02T09:10:39.961Z,0.25
2022-09-02T09:13:23.042Z,0.13
2022-09-02T09:15:57.989Z,0.30
2022-09-02T09:18:39.006Z,0.10
2022-09-02T09:21:10.448Z,0.20
2022-09-02T09:23:41.006Z,0.20
2022-09-02T09:26:11.379Z,0.10
2022-09-02T09:28:42.508Z,0.20
2022-09-02T09:31:13.631Z,0.20
2022-09-02T09:33:56.661Z,0.40
2022-09-02T09:36:53.673Z,0.40
2022-09-02T09:39:28.435Z,0.40
2022-09-02T09:41:58.840Z,0.50
2022-09-02T09:44:51.223Z,0.20
2022-09-02T09:47:22.937Z,0.20
2022-09-02T09:49:53.884Z,0.50
2022-09-02T09:52:31.644Z,0.20
2022-09-02T09:55:13.921Z,0.30
2022-09-02T09:57:45.653Z,0.30
2022-09-02T10:00:33.328Z,0.30
2022-09-02T10:03:08.393Z,0.20
2022-09-02T10:05:38.185Z,0.20
2022-09-02T10:08:21.670Z,0.30
2022-09-02T10:10:58.594Z,0.20
2022-09-02T10:13:30.085Z,0.20
2022-09-02T10:16:16.145Z,0.20
2022-09-02T10:18:51.647Z,0.10
2022-09-02T10:21:45.002Z,0.20
2022-09-02T10:24:38.579Z,0.10
2022-09-02T10:27:13.125Z,0.20
2022-09-02T10:29:52.525Z,0.17
2022-09-02T10:35:06.209Z,0.15
2022-09-02T10:37:43.551Z,0.20
2022-09-02T10:40:17.137Z,0.10
2022-09-02T10:42:56.170Z,0.15
2022-09-02T10:48:06.802Z,0.30
2022-09-02T10:50:43.761Z,0.20
2022-09-02T10:53:24.527Z,0.10
2022-09-02T10:55:59.059Z,0.10
2022-09-02T10:58:40.300Z,0.10
2022-09-02T11:01:13.428Z,0.08
2022-09-02T11:03:49.927Z,0.10
2022-09-02T11:06:31.641Z,0.10
2022-09-02T11:09:13.438Z,0.10
2022-09-02T11:11:51.003Z,0.10
2022-09-02T11:14:25.497Z,0.22
2022-09-02T11:16:57.835Z,0.15
2022-09-02T11:19:34.351Z,0.10
2022-09-02T11:22:16.717Z,0.10
2022-09-02T11:24:53.142Z,0.10
2022-09-02T11:27:42.229Z,0.20
2022-09-02T11:30:15.206Z,0.20
2022-09-02T11:32:50.519Z,0.30
2022-09-02T11:35:24.811Z,0.20
2022-09-02T11:37:58.529Z,0.30
2022-09-02T11:40:34.768Z,0.20
2022-09-02T11:43:22.495Z,0.20
2022-09-02T11:46:19.315Z,0.28
2022-09-02T11:49:24.190Z,0.17
2022-09-02T11:52:18.972Z,0.20
2022-09-02T11:54:51.062Z,0.30
2022-09-02T11:57:25.083Z,0.35
2022-09-02T12:00:30.743Z,0.20
2022-09-02T12:03:37.799Z,0.30
2022-09-02T12:06:11.169Z,0.50
2022-09-02T12:09:05.048Z,0.30
2022-09-02T12:11:45.444Z,0.22
2022-09-02T12:15:06.833Z,0.30
2022-09-02T12:17:46.949Z,0.20
2022-09-02T12:20:51.425Z,0.10
2022-09-02T12:23:55.685Z,0.20
2022-09-02T12:26:25.868Z,0.10
2022-09-02T12:28:55.220Z,0.10
2022-09-02T12:31:41.466Z,0.20
2022-09-02T12:34:47.052Z,0.30
2022-09-02T12:37:49.854Z,0.30
2022-09-02T12:40:27.129Z,0.20
2022-09-02T12:43:03.964Z,0.20
2022-09-02T12:45:34.277Z,0.20
2022-09-02T12:48:12.505Z,0.10
2022-09-02T12:50:56.065Z,0.20
2022-09-02T12:53:34.111Z,0.30
2022-09-02T12:56:07.002Z,0.20
2022-09-02T12:58:39.241Z,0.10
2022-09-02T13:01:20.877Z,0.10
2022-09-02T13:04:21.033Z,0.30
2022-09-02T13:07:21.836Z,0.30
2022-09-02T13:10:14.625Z,0.50
2022-09-02T13:13:16.550Z,0.40
2022-09-02T13:16:18.689Z,0.40
2022-09-02T13:19:24.316Z,0.30
2022-09-02T13:22:33.778Z,0.10
2022-09-02T13:25:23.714Z,0.32
2022-09-02T13:28:28.169Z,0.20
2022-09-02T13:31:12.324Z,0.20
2022-09-02T13:33:42.689Z,0.28
2022-09-02T13:36:11.672Z,0.60
2022-09-02T13:38:39.952Z,0.40
2022-09-02T13:41:09.320Z,0.27
2022-09-02T13:43:47.154Z,0.10
2022-09-02T13:46:17.247Z,0.10
2022-09-02T13:48:45.686Z,0.15
2022-09-02T13:51:15.554Z,0.20
2022-09-02T13:54:20.746Z,0.15
2022-09-02T13:56:36.247Z,0.05
2022-09-02T13:59:04.341Z,0.17
2022-09-02T14:01:37.205Z,0.20
2022-09-02T14:04:12.343Z,0.03
2022-09-02T14:06:43.275Z,0.10
2022-09-02T14:09:20.386Z,0.00
2022-09-02T14:11:50.581Z,0.10
2022-09-02T14:14:23.192Z,0.10
2022-09-02T14:16:54.172Z,0.20
2022-09-02T14:19:26.180Z,0.13
2022-09-02T14:21:57.535Z,0.10
2022-09-02T14:24:27.987Z,0.40
2022-09-02T14:26:57.734Z,0.20
2022-09-02T14:29:27.618Z,0.55
2022-09-02T14:32:13.803Z,0.10
2022-09-02T14:34:44.149Z,0.10
2022-09-02T14:37:21.101Z,0.10
2022-09-02T14:40:05.565Z,0.10
2022-09-02T14:42:47.172Z,0.10
2022-09-02T14:45:15.918Z,0.20
2022-09-02T14:47:45.815Z,0.00
2022-09-02T14:50:17.703Z,0.13
2022-09-02T14:52:49.891Z,0.20
2022-09-02T14:55:47.181Z,0.20
2022-09-02T14:58:15.942Z,0.10
2022-09-02T15:00:52.760Z,0.10
2022-09-02T15:03:45.102Z,0.40
2022-09-02T15:06:20.877Z,0.43
2022-09-02T15:08:49.382Z,0.20
2022-09-02T15:11:21.499Z,2.90
2022-09-02T15:13:51.990Z,0.10
2022-09-02T15:16:20.535Z,0.60
2022-09-02T15:18:50.131Z,0.10
2022-09-02T15:21:19.733Z,0.10
2022-09-02T15:26:19.728Z,0.15
2022-09-02T15:28:47.956Z,0.10
2022-09-02T15:31:16.932Z,0.10
2022-09-02T15:33:51.760Z,0.20
2022-09-02T15:36:26.774Z,0.20
2022-09-02T15:39:08.088Z,0.20
2022-09-02T15:41:37.548Z,0.17
2022-09-02T15:44:07.819Z,0.10
2022-09-02T15:46:37.175Z,0.20
2022-09-02T15:49:09.429Z,0.08
2022-09-02T15:51:39.237Z,0.20
2022-09-02T15:54:09.147Z,0.20
2022-09-02T15:56:40.397Z,0.08
2022-09-02T15:59:11.054Z,0.03
2022-09-02T16:01:44.403Z,0.10
2022-09-02T16:04:15.128Z,0.10
2022-09-02T16:06:46.550Z,0.05
2022-09-02T16:09:20.246Z,0.10
2022-09-02T16:11:50.395Z,0.10
2022-09-02T16:14:20.467Z,0.03
2022-09-02T16:16:50.852Z,0.30
2022-09-02T16:19:22.278Z,0.30
2022-09-02T16:21:51.385Z,0.30
2022-09-02T16:24:21.673Z,0.10
2022-09-02T16:26:51.762Z,0.15
2022-09-02T16:29:25.340Z,0.10
2022-09-02T16:32:13.987Z,0.17
2022-09-02T16:34:45.498Z,0.30
2022-09-02T16:37:14.720Z,0.20
2022-09-02T16:39:43.383Z,0.20
2022-09-02T16:42:11.935Z,0.15
2022-09-02T16:44:41.888Z,0.10
2022-09-02T16:47:13.752Z,0.30
2022-09-02T16:49:46.398Z,0.20
2022-09-02T16:52:14.976Z,0.10
2022-09-02T16:54:43.936Z,0.20
2022-09-02T16:57:12.347Z,0.10
2022-09-02T16:59:40.568Z,0.20
2022-09-02T17:02:09.253Z,0.10
2022-09-02T17:04:37.554Z,0.10
2022-09-02T17:07:08.408Z,0.10
2022-09-02T17:09:37.395Z,0.20
2022-09-02T17:12:05.937Z,0.20
2022-09-02T17:14:34.223Z,0.27
2022-09-02T17:17:02.850Z,0.10
2022-09-02T17:19:32.927Z,0.20
2022-09-02T17:22:01.484Z,0.20
2022-09-02T17:24:31.986Z,0.10
2022-09-02T17:27:02.227Z,0.30
2022-09-02T17:34:51.154Z,0.70
2022-09-02T17:37:19.799Z,0.60
2022-09-02T17:39:50.143Z,1.20
2022-09-02T17:42:20.059Z,1.13
2022-09-02T17:44:48.776Z,1.20
2022-09-02T17:47:20.234Z,1.00
2022-09-02T17:49:50.133Z,0.80
2022-09-02T17:52:20.210Z,0.90
2022-09-02T17:54:52.381Z,0.90
2022-09-02T17:57:23.744Z,0.77
2022-09-02T18:00:11.296Z,0.60
2022-09-02T18:02:55.633Z,0.60
2022-09-02T18:05:29.280Z,0.45
2022-09-02T18:08:02.841Z,0.60
2022-09-02T18:10:36.365Z,0.55
2022-09-02T18:13:08.287Z,0.50
2022-09-02T18:15:46.590Z,0.57
2022-09-02T18:18:17.025Z,0.50
2022-09-02T18:20:49.570Z,0.68
2022-09-02T18:23:33.982Z,0.80
2022-09-02T18:26:31.787Z,0.70
2022-09-02T18:29:16.332Z,0.60
2022-09-02T18:32:07.138Z,0.65
2022-09-02T18:34:49.912Z,0.40
2022-09-02T18:37:32.592Z,0.50
2022-09-02T18:40:19.440Z,0.45
2022-09-02T18:43:24.013Z,0.50
2022-09-02T18:45:55.283Z,0.40
2022-09-02T18:48:28.459Z,0.40
2022-09-02T18:51:06.845Z,0.70
2022-09-02T18:53:41.296Z,0.70
2022-09-02T18:56:13.408Z,0.70
2022-09-02T18:58:48.918Z,0.90
2022-09-02T19:01:24.363Z,0.50
2022-09-02T19:03:55.135Z,1.52
2022-09-02T19:06:28.952Z,1.20
2022-09-02T19:09:00.545Z,1.92
2022-09-02T19:11:29.210Z,1.98
2022-09-02T19:14:09.443Z,1.57
2022-09-02T19:16:40.082Z,2.28
2022-09-02T19:19:09.694Z,2.42
2022-09-02T19:21:41.124Z,2.65
2022-09-02T19:24:13.600Z,2.10
2022-09-02T19:26:46.134Z,1.63
2022-09-02T19:29:18.922Z,1.83
2022-09-02T19:31:54.849Z,1.42
2022-09-02T19:34:24.309Z,0.70
2022-09-02T19:36:53.934Z,0.85
2022-09-02T19:39:27.100Z,0.70
2022-09-02T19:41:56.353Z,1.10
2022-09-02T19:44:26.179Z,1.10
2022-09-02T19:49:43.536Z,1.10
2022-09-02T19:52:12.895Z,0.88
2022-09-02T19:54:43.038Z,1.40
2022-09-02T19:57:11.993Z,1.10
2022-09-02T19:59:41.794Z,1.13
2022-09-02T20:02:12.435Z,0.93
2022-09-02T20:04:41.115Z,1.15
2022-09-02T20:07:12.727Z,1.00
2022-09-02T20:09:41.926Z,1.00
2022-09-02T20:12:12.417Z,0.85
2022-09-02T20:14:42.196Z,1.17
2022-09-02T20:17:14.681Z,0.80
2022-09-02T20:19:45.065Z,0.88
2022-09-02T20:22:14.900Z,0.80
2022-09-02T20:24:44.209Z,0.85
2022-09-02T20:27:27.089Z,1.00
2022-09-02T20:30:07.622Z,1.30
2022-09-02T20:32:44.176Z,0.90
2022-09-02T20:35:28.478Z,1.15
2022-09-02T20:38:11.770Z,1.23
2022-09-02T20:40:49.647Z,1.10
2022-09-02T20:43:40.970Z,0.93
2022-09-02T20:46:24.442Z,0.80
2022-09-02T20:49:09.001Z,1.05
2022-09-02T20:51:46.492Z,1.00
2022-09-02T20:54:25.066Z,0.90
2022-09-02T20:57:07.369Z,1.00
2022-09-02T20:59:48.648Z,1.35
2022-09-02T21:02:25.180Z,1.75
2022-09-02T21:04:57.171Z,1.08
2022-09-02T21:07:32.744Z,1.48
2022-09-02T21:10:08.244Z,1.17
2022-09-02T21:12:43.422Z,1.40
2022-09-02T21:15:24.015Z,1.20
2022-09-02T21:17:58.878Z,1.10
2022-09-02T21:20:37.244Z,1.23
2022-09-02T21:23:12.648Z,1.55
2022-09-02T21:25:53.020Z,1.50
2022-09-02T21:28:27.243Z,1.45
2022-09-02T21:30:59.416Z,1.20
2022-09-02T21:33:32.605Z,1.73
2022-09-02T21:36:02.538Z,1.90
2022-09-02T21:38:36.198Z,1.60
2022-09-02T21:41:25.422Z,1.48
2022-09-02T21:44:03.750Z,1.33
2022-09-02T21:46:42.160Z,1.50
2022-09-02T21:49:32.565Z,1.65
2022-09-02T21:52:11.933Z,1.80
2022-09-02T21:54:53.089Z,2.00
2022-09-02T21:57:34.910Z,1.88
2022-09-02T22:00:07.944Z,2.13
2022-09-02T22:02:50.249Z,1.70
2022-09-02T22:05:30.687Z,1.70
2022-09-02T22:08:06.261Z,1.83
2022-09-02T22:10:40.683Z,2.67
2022-09-02T22:13:09.683Z,1.67
2022-09-02T22:15:58.066Z,1.75
2022-09-02T22:18:38.286Z,1.90
2022-09-02T22:23:39.978Z,2.13
2022-09-02T22:26:20.976Z,1.85
2022-09-02T22:28:54.027Z,1.92
2022-09-02T22:31:26.825Z,1.92
2022-09-02T22:33:58.893Z,1.70
2022-09-02T22:36:39.944Z,2.03
2022-09-02T22:39:08.544Z,2.08
2022-09-02T22:41:52.027Z,2.17
2022-09-02T22:44:27.011Z,1.85
2022-09-02T22:47:18.267Z,1.90
2022-09-02T22:50:08.626Z,2.55
2022-09-02T22:52:54.664Z,2.50
2022-09-02T22:55:47.705Z,2.15
2022-09-02T22:58:37.365Z,2.28
2022-09-02T23:04:00.123Z,1.85
2022-09-02T23:06:29.969Z,2.17
2022-09-02T23:09:05.762Z,1.92
2022-09-02T23:11:41.115Z,2.05
2022-09-02T23:14:19.367Z,1.85
2022-09-02T23:17:09.731Z,1.80
2022-09-02T23:19:51.879Z,2.10
2022-09-02T23:22:34.169Z,1.75
2022-09-02T23:25:22.186Z,1.95
2022-09-02T23:28:04.765Z,1.83
2022-09-02T23:30:33.470Z,1.67
2022-09-02T23:33:17.817Z,1.88
2022-09-02T23:35:53.907Z,1.45
2022-09-02T23:38:53.804Z,1.75
2022-09-02T23:41:24.622Z,1.45
2022-09-02T23:43:53.616Z,1.70
2022-09-02T23:46:34.548Z,1.90
2022-09-02T23:49:12.046Z,1.50
2022-09-02T23:51:49.888Z,1.25
2022-09-02T23:54:37.307Z,1.42
2022-09-02T23:57:25.093Z,1.60
